sensor_id;sensor_type;location;lat;lon;timestamp;temperature;humidity
74488;DHT22;63019;51.080;13.642;2022-12-18T00:00:48;-6.50;96.80
74488;DHT22;63019;51.080;13.642;2022-12-18T00:01:50;-6.50;96.80
74488;DHT22;63019;51.080;13.642;2022-12-18T00:02:51;-6.50;96.70
74488;DHT22;63019;51.080;13.642;2022-12-18T00:03:55;-6.40;96.30
74488;DHT22;63019;51.080;13.642;2022-12-18T00:04:57;-6.40;95.90
74488;DHT22;63019;51.080;13.642;2022-12-18T00:06:02;-6.40;95.60
74488;DHT22;63019;51.080;13.642;2022-12-18T00:07:04;-6.40;95.60
74488;DHT22;63019;51.080;13.642;2022-12-18T00:08:05;-6.40;95.80
74488;DHT22;63019;51.080;13.642;2022-12-18T00:09:10;-6.50;95.80
74488;DHT22;63019;51.080;13.642;2022-12-18T00:10:12;-6.60;96.10
74488;DHT22;63019;51.080;13.642;2022-12-18T00:11:18;-6.60;96.40
74488;DHT22;63019;51.080;13.642;2022-12-18T00:12:20;-6.60;96.80
74488;DHT22;63019;51.080;13.642;2022-12-18T00:13:21;-6.60;97.00
74488;DHT22;63019;51.080;13.642;2022-12-18T00:14:23;-6.60;97.30
74488;DHT22;63019;51.080;13.642;2022-12-18T00:15:25;-6.60;97.50
74488;DHT22;63019;51.080;13.642;2022-12-18T00:16:28;-6.60;97.70
74488;DHT22;63019;51.080;13.642;2022-12-18T00:17:30;-6.70;97.80
74488;DHT22;63019;51.080;13.642;2022-12-18T00:18:32;-6.70;97.90
74488;DHT22;63019;51.080;13.642;2022-12-18T00:19:34;-6.70;97.80
74488;DHT22;63019;51.080;13.642;2022-12-18T00:20:39;-6.70;97.90
74488;DHT22;63019;51.080;13.642;2022-12-18T00:21:42;-6.60;97.80
74488;DHT22;63019;51.080;13.642;2022-12-18T00:22:44;-6.60;97.60
74488;DHT22;63019;51.080;13.642;2022-12-18T00:23:47;-6.60;97.40
74488;DHT22;63019;51.080;13.642;2022-12-18T00:24:49;-6.60;97.30
74488;DHT22;63019;51.080;13.642;2022-12-18T00:25:51;-6.60;97.20
74488;DHT22;63019;51.080;13.642;2022-12-18T00:26:53;-6.60;97.10
74488;DHT22;63019;51.080;13.642;2022-12-18T00:27:55;-6.60;97.00
74488;DHT22;63019;51.080;13.642;2022-12-18T00:29:02;-6.60;97.00
74488;DHT22;63019;51.080;13.642;2022-12-18T00:30:06;-6.70;97.10
74488;DHT22;63019;51.080;13.642;2022-12-18T00:31:11;-6.70;97.20
74488;DHT22;63019;51.080;13.642;2022-12-18T00:32:13;-6.70;97.30
74488;DHT22;63019;51.080;13.642;2022-12-18T00:33:15;-6.70;97.40
74488;DHT22;63019;51.080;13.642;2022-12-18T00:34:16;-6.70;97.30
74488;DHT22;63019;51.080;13.642;2022-12-18T00:35:18;-6.60;97.10
74488;DHT22;63019;51.080;13.642;2022-12-18T00:36:22;-6.60;96.90
74488;DHT22;63019;51.080;13.642;2022-12-18T00:37:24;-6.70;97.00
74488;DHT22;63019;51.080;13.642;2022-12-18T00:38:26;-6.70;97.10
74488;DHT22;63019;51.080;13.642;2022-12-18T00:39:27;-6.70;97.00
74488;DHT22;63019;51.080;13.642;2022-12-18T00:40:29;-6.70;97.00
74488;DHT22;63019;51.080;13.642;2022-12-18T00:41:31;-6.80;97.00
74488;DHT22;63019;51.080;13.642;2022-12-18T00:42:51;-6.80;97.10
74488;DHT22;63019;51.080;13.642;2022-12-18T00:43:59;-6.80;97.20
74488;DHT22;63019;51.080;13.642;2022-12-18T00:45:01;-6.80;97.30
74488;DHT22;63019;51.080;13.642;2022-12-18T00:46:09;-6.80;97.20
74488;DHT22;63019;51.080;13.642;2022-12-18T00:47:11;-6.80;97.20
74488;DHT22;63019;51.080;13.642;2022-12-18T00:48:13;-6.80;97.10
74488;DHT22;63019;51.080;13.642;2022-12-18T00:49:19;-6.80;97.00
74488;DHT22;63019;51.080;13.642;2022-12-18T00:50:23;-6.80;96.90
74488;DHT22;63019;51.080;13.642;2022-12-18T00:51:25;-6.80;96.80
74488;DHT22;63019;51.080;13.642;2022-12-18T00:52:28;-6.80;96.70
74488;DHT22;63019;51.080;13.642;2022-12-18T00:53:29;-6.80;96.70
74488;DHT22;63019;51.080;13.642;2022-12-18T00:54:31;-6.80;96.70
74488;DHT22;63019;51.080;13.642;2022-12-18T00:55:33;-6.80;96.70
74488;DHT22;63019;51.080;13.642;2022-12-18T00:56:37;-6.80;96.60
74488;DHT22;63019;51.080;13.642;2022-12-18T00:57:51;-6.80;96.70
74488;DHT22;63019;51.080;13.642;2022-12-18T00:58:53;-6.90;96.70
74488;DHT22;63019;51.080;13.642;2022-12-18T00:59:55;-6.90;96.80
74488;DHT22;63019;51.080;13.642;2022-12-18T01:00:57;-6.80;96.80
74488;DHT22;63019;51.080;13.642;2022-12-18T01:01:59;-6.80;96.40
74488;DHT22;63019;51.080;13.642;2022-12-18T01:03:01;-6.80;96.20
74488;DHT22;63019;51.080;13.642;2022-12-18T01:04:03;-6.80;96.30
74488;DHT22;63019;51.080;13.642;2022-12-18T01:05:05;-6.80;96.10
74488;DHT22;63019;51.080;13.642;2022-12-18T01:06:08;-6.80;96.60
74488;DHT22;63019;51.080;13.642;2022-12-18T01:07:10;-6.90;96.10
74488;DHT22;63019;51.080;13.642;2022-12-18T01:08:12;-6.90;96.10
74488;DHT22;63019;51.080;13.642;2022-12-18T01:09:14;-7.00;96.20
74488;DHT22;63019;51.080;13.642;2022-12-18T01:10:16;-7.00;96.30
74488;DHT22;63019;51.080;13.642;2022-12-18T01:11:19;-6.90;96.50
74488;DHT22;63019;51.080;13.642;2022-12-18T01:12:21;-7.00;96.30
74488;DHT22;63019;51.080;13.642;2022-12-18T01:13:23;-7.00;96.00
74488;DHT22;63019;51.080;13.642;2022-12-18T01:14:25;-7.00;96.20
74488;DHT22;63019;51.080;13.642;2022-12-18T01:15:26;-7.00;96.20
74488;DHT22;63019;51.080;13.642;2022-12-18T01:16:28;-7.10;96.30
74488;DHT22;63019;51.080;13.642;2022-12-18T01:17:30;-7.10;96.40
74488;DHT22;63019;51.080;13.642;2022-12-18T01:18:32;-7.10;96.50
74488;DHT22;63019;51.080;13.642;2022-12-18T01:19:34;-7.10;96.90
74488;DHT22;63019;51.080;13.642;2022-12-18T01:20:37;-7.10;96.80
74488;DHT22;63019;51.080;13.642;2022-12-18T01:21:39;-7.10;97.00
74488;DHT22;63019;51.080;13.642;2022-12-18T01:22:41;-7.10;96.90
74488;DHT22;63019;51.080;13.642;2022-12-18T01:23:44;-7.10;96.90
74488;DHT22;63019;51.080;13.642;2022-12-18T01:24:46;-7.10;97.00
74488;DHT22;63019;51.080;13.642;2022-12-18T01:25:48;-7.10;97.30
74488;DHT22;63019;51.080;13.642;2022-12-18T01:26:50;-7.10;97.30
74488;DHT22;63019;51.080;13.642;2022-12-18T01:27:52;-7.10;97.30
74488;DHT22;63019;51.080;13.642;2022-12-18T01:28:57;-7.10;97.20
74488;DHT22;63019;51.080;13.642;2022-12-18T01:29:59;-7.10;97.10
74488;DHT22;63019;51.080;13.642;2022-12-18T01:32:12;-7.00;96.80
74488;DHT22;63019;51.080;13.642;2022-12-18T01:33:14;-7.00;96.70
74488;DHT22;63019;51.080;13.642;2022-12-18T01:34:16;-7.00;96.60
74488;DHT22;63019;51.080;13.642;2022-12-18T01:35:18;-7.00;96.60
74488;DHT22;63019;51.080;13.642;2022-12-18T01:36:25;-7.00;96.40
74488;DHT22;63019;51.080;13.642;2022-12-18T01:37:27;-7.00;96.10
74488;DHT22;63019;51.080;13.642;2022-12-18T01:38:29;-7.00;96.10
74488;DHT22;63019;51.080;13.642;2022-12-18T01:39:31;-7.00;96.00
74488;DHT22;63019;51.080;13.642;2022-12-18T01:40:36;-7.10;96.00
74488;DHT22;63019;51.080;13.642;2022-12-18T01:41:38;-7.10;96.00
74488;DHT22;63019;51.080;13.642;2022-12-18T01:43:09;-7.10;96.00
74488;DHT22;63019;51.080;13.642;2022-12-18T01:45:50;-7.20;96.10
74488;DHT22;63019;51.080;13.642;2022-12-18T01:46:52;-7.20;96.20
74488;DHT22;63019;51.080;13.642;2022-12-18T01:48:03;-7.20;95.70
74488;DHT22;63019;51.080;13.642;2022-12-18T01:49:06;-7.20;95.80
74488;DHT22;63019;51.080;13.642;2022-12-18T01:50:10;-7.20;96.00
74488;DHT22;63019;51.080;13.642;2022-12-18T01:51:12;-7.20;96.10
74488;DHT22;63019;51.080;13.642;2022-12-18T01:52:15;-7.20;96.20
74488;DHT22;63019;51.080;13.642;2022-12-18T01:53:20;-7.30;96.20
74488;DHT22;63019;51.080;13.642;2022-12-18T01:54:22;-7.30;96.50
74488;DHT22;63019;51.080;13.642;2022-12-18T01:55:27;-7.30;96.60
74488;DHT22;63019;51.080;13.642;2022-12-18T01:56:30;-7.30;96.50
74488;DHT22;63019;51.080;13.642;2022-12-18T01:57:32;-7.30;96.40
74488;DHT22;63019;51.080;13.642;2022-12-18T01:58:58;-7.30;96.40
74488;DHT22;63019;51.080;13.642;2022-12-18T02:00:06;-7.30;96.60
74488;DHT22;63019;51.080;13.642;2022-12-18T02:01:08;-7.20;98.00
74488;DHT22;63019;51.080;13.642;2022-12-18T02:02:11;-7.10;98.10
74488;DHT22;63019;51.080;13.642;2022-12-18T02:03:13;-7.10;97.80
74488;DHT22;63019;51.080;13.642;2022-12-18T02:04:27;-7.00;97.30
74488;DHT22;63019;51.080;13.642;2022-12-18T02:06:40;-7.00;96.60
74488;DHT22;63019;51.080;13.642;2022-12-18T02:11:08;-6.90;96.60
74488;DHT22;63019;51.080;13.642;2022-12-18T02:12:13;-6.90;96.30
74488;DHT22;63019;51.080;13.642;2022-12-18T02:13:54;-6.90;96.20
74488;DHT22;63019;51.080;13.642;2022-12-18T02:16:47;-7.00;96.00
74488;DHT22;63019;51.080;13.642;2022-12-18T02:18:01;-7.10;96.10
74488;DHT22;63019;51.080;13.642;2022-12-18T02:19:18;-7.10;96.10
74488;DHT22;63019;51.080;13.642;2022-12-18T02:26:22;-7.40;95.70
74488;DHT22;63019;51.080;13.642;2022-12-18T02:27:31;-7.40;95.60
74488;DHT22;63019;51.080;13.642;2022-12-18T02:28:38;-7.40;95.60
74488;DHT22;63019;51.080;13.642;2022-12-18T02:29:46;-7.50;95.60
74488;DHT22;63019;51.080;13.642;2022-12-18T02:31:01;-7.50;95.60
74488;DHT22;63019;51.080;13.642;2022-12-18T02:32:09;-7.50;95.70
74488;DHT22;63019;51.080;13.642;2022-12-18T02:33:13;-7.50;95.90
74488;DHT22;63019;51.080;13.642;2022-12-18T02:34:16;-7.50;96.20
74488;DHT22;63019;51.080;13.642;2022-12-18T02:35:28;-7.50;96.70
74488;DHT22;63019;51.080;13.642;2022-12-18T02:36:32;-7.50;96.90
74488;DHT22;63019;51.080;13.642;2022-12-18T02:37:35;-7.50;96.70
74488;DHT22;63019;51.080;13.642;2022-12-18T02:38:40;-7.50;96.60
74488;DHT22;63019;51.080;13.642;2022-12-18T02:39:46;-7.50;96.50
74488;DHT22;63019;51.080;13.642;2022-12-18T02:40:49;-7.40;96.60
74488;DHT22;63019;51.080;13.642;2022-12-18T02:41:52;-7.40;96.50
74488;DHT22;63019;51.080;13.642;2022-12-18T02:42:54;-7.40;96.40
74488;DHT22;63019;51.080;13.642;2022-12-18T02:43:59;-7.40;96.60
74488;DHT22;63019;51.080;13.642;2022-12-18T02:45:01;-7.40;96.60
74488;DHT22;63019;51.080;13.642;2022-12-18T02:46:44;-7.40;96.50
74488;DHT22;63019;51.080;13.642;2022-12-18T02:47:48;-7.40;96.90
74488;DHT22;63019;51.080;13.642;2022-12-18T02:48:53;-7.40;96.50
74488;DHT22;63019;51.080;13.642;2022-12-18T02:50:18;-7.40;96.80
74488;DHT22;63019;51.080;13.642;2022-12-18T02:51:30;-7.40;96.70
74488;DHT22;63019;51.080;13.642;2022-12-18T02:54:26;-7.40;96.90
74488;DHT22;63019;51.080;13.642;2022-12-18T02:56:54;-7.40;96.80
74488;DHT22;63019;51.080;13.642;2022-12-18T02:58:10;-7.40;96.60
74488;DHT22;63019;51.080;13.642;2022-12-18T02:59:19;-7.40;96.60
74488;DHT22;63019;51.080;13.642;2022-12-18T03:00:31;-7.40;96.60
74488;DHT22;63019;51.080;13.642;2022-12-18T03:01:45;-7.40;96.50
74488;DHT22;63019;51.080;13.642;2022-12-18T03:02:58;-7.30;96.80
74488;DHT22;63019;51.080;13.642;2022-12-18T03:04:12;-7.30;96.70
74488;DHT22;63019;51.080;13.642;2022-12-18T03:06:24;-7.30;96.90
74488;DHT22;63019;51.080;13.642;2022-12-18T03:09:09;-7.30;96.60
74488;DHT22;63019;51.080;13.642;2022-12-18T03:10:14;-7.20;96.40
74488;DHT22;63019;51.080;13.642;2022-12-18T03:11:18;-7.20;96.40
74488;DHT22;63019;51.080;13.642;2022-12-18T03:12:58;-7.20;96.70
74488;DHT22;63019;51.080;13.642;2022-12-18T03:14:02;-7.20;96.30
74488;DHT22;63019;51.080;13.642;2022-12-18T03:16:24;-7.20;96.20
74488;DHT22;63019;51.080;13.642;2022-12-18T03:17:27;-7.20;96.10
74488;DHT22;63019;51.080;13.642;2022-12-18T03:18:36;-7.20;96.20
74488;DHT22;63019;51.080;13.642;2022-12-18T03:19:40;-7.20;96.20
74488;DHT22;63019;51.080;13.642;2022-12-18T03:20:43;-7.30;96.00
74488;DHT22;63019;51.080;13.642;2022-12-18T03:21:47;-7.30;96.30
74488;DHT22;63019;51.080;13.642;2022-12-18T03:22:55;-7.30;96.20
74488;DHT22;63019;51.080;13.642;2022-12-18T03:23:58;-7.40;96.20
74488;DHT22;63019;51.080;13.642;2022-12-18T03:25:03;-7.40;96.40
74488;DHT22;63019;51.080;13.642;2022-12-18T03:26:10;-7.40;96.60
74488;DHT22;63019;51.080;13.642;2022-12-18T03:27:15;-7.40;96.60
74488;DHT22;63019;51.080;13.642;2022-12-18T03:28:22;-7.40;96.80
74488;DHT22;63019;51.080;13.642;2022-12-18T03:29:32;-7.40;96.80
74488;DHT22;63019;51.080;13.642;2022-12-18T03:30:37;-7.30;96.70
74488;DHT22;63019;51.080;13.642;2022-12-18T03:31:42;-7.40;96.70
74488;DHT22;63019;51.080;13.642;2022-12-18T03:33:57;-7.40;96.80
74488;DHT22;63019;51.080;13.642;2022-12-18T03:35:03;-7.40;97.00
74488;DHT22;63019;51.080;13.642;2022-12-18T03:36:06;-7.40;97.00
74488;DHT22;63019;51.080;13.642;2022-12-18T03:37:12;-7.40;97.10
74488;DHT22;63019;51.080;13.642;2022-12-18T03:38:14;-7.40;96.90
74488;DHT22;63019;51.080;13.642;2022-12-18T03:39:16;-7.50;96.70
74488;DHT22;63019;51.080;13.642;2022-12-18T03:40:20;-7.40;96.90
74488;DHT22;63019;51.080;13.642;2022-12-18T03:41:38;-7.40;96.60
74488;DHT22;63019;51.080;13.642;2022-12-18T03:42:49;-7.40;96.50
74488;DHT22;63019;51.080;13.642;2022-12-18T03:44:57;-7.40;96.50
74488;DHT22;63019;51.080;13.642;2022-12-18T03:46:33;-7.40;96.30
74488;DHT22;63019;51.080;13.642;2022-12-18T03:48:55;-7.50;96.30
74488;DHT22;63019;51.080;13.642;2022-12-18T03:50:18;-7.50;96.30
74488;DHT22;63019;51.080;13.642;2022-12-18T03:51:33;-7.50;96.20
74488;DHT22;63019;51.080;13.642;2022-12-18T03:52:38;-7.50;96.10
74488;DHT22;63019;51.080;13.642;2022-12-18T03:53:51;-7.50;96.10
74488;DHT22;63019;51.080;13.642;2022-12-18T03:54:56;-7.50;96.30
74488;DHT22;63019;51.080;13.642;2022-12-18T03:56:00;-7.50;96.00
74488;DHT22;63019;51.080;13.642;2022-12-18T03:57:11;-7.40;95.70
74488;DHT22;63019;51.080;13.642;2022-12-18T03:58:18;-7.40;95.60
74488;DHT22;63019;51.080;13.642;2022-12-18T03:59:22;-7.40;95.80
74488;DHT22;63019;51.080;13.642;2022-12-18T04:00:25;-7.40;95.50
74488;DHT22;63019;51.080;13.642;2022-12-18T04:01:39;-7.40;95.30
74488;DHT22;63019;51.080;13.642;2022-12-18T04:02:46;-7.40;95.40
74488;DHT22;63019;51.080;13.642;2022-12-18T04:03:49;-7.40;95.30
74488;DHT22;63019;51.080;13.642;2022-12-18T04:04:53;-7.50;95.20
74488;DHT22;63019;51.080;13.642;2022-12-18T04:05:59;-7.50;95.30
74488;DHT22;63019;51.080;13.642;2022-12-18T04:07:02;-7.50;95.40
74488;DHT22;63019;51.080;13.642;2022-12-18T04:08:04;-7.60;96.10
74488;DHT22;63019;51.080;13.642;2022-12-18T04:09:06;-7.60;95.90
74488;DHT22;63019;51.080;13.642;2022-12-18T04:10:12;-7.60;95.70
74488;DHT22;63019;51.080;13.642;2022-12-18T04:11:15;-7.60;95.70
74488;DHT22;63019;51.080;13.642;2022-12-18T04:12:17;-7.60;95.70
74488;DHT22;63019;51.080;13.642;2022-12-18T04:13:29;-7.60;95.80
74488;DHT22;63019;51.080;13.642;2022-12-18T04:14:31;-7.60;96.20
74488;DHT22;63019;51.080;13.642;2022-12-18T04:15:37;-7.70;96.20
74488;DHT22;63019;51.080;13.642;2022-12-18T04:16:39;-7.70;96.30
74488;DHT22;63019;51.080;13.642;2022-12-18T04:17:47;-7.60;96.50
74488;DHT22;63019;51.080;13.642;2022-12-18T04:18:50;-7.60;96.50
74488;DHT22;63019;51.080;13.642;2022-12-18T04:19:52;-7.60;96.40
74488;DHT22;63019;51.080;13.642;2022-12-18T04:20:54;-7.60;96.40
74488;DHT22;63019;51.080;13.642;2022-12-18T04:21:56;-7.60;96.50
74488;DHT22;63019;51.080;13.642;2022-12-18T04:22:58;-7.60;96.50
74488;DHT22;63019;51.080;13.642;2022-12-18T04:23:59;-7.60;96.40
74488;DHT22;63019;51.080;13.642;2022-12-18T04:25:01;-7.60;96.30
74488;DHT22;63019;51.080;13.642;2022-12-18T04:26:03;-7.60;96.50
74488;DHT22;63019;51.080;13.642;2022-12-18T04:27:05;-7.70;96.50
74488;DHT22;63019;51.080;13.642;2022-12-18T04:28:07;-7.70;96.40
74488;DHT22;63019;51.080;13.642;2022-12-18T04:29:09;-7.60;96.40
74488;DHT22;63019;51.080;13.642;2022-12-18T04:30:11;-7.70;96.50
74488;DHT22;63019;51.080;13.642;2022-12-18T04:31:13;-7.70;96.50
74488;DHT22;63019;51.080;13.642;2022-12-18T04:32:15;-7.60;96.50
74488;DHT22;63019;51.080;13.642;2022-12-18T04:33:17;-7.70;96.30
74488;DHT22;63019;51.080;13.642;2022-12-18T04:34:19;-7.60;96.80
74488;DHT22;63019;51.080;13.642;2022-12-18T04:35:20;-7.60;96.60
74488;DHT22;63019;51.080;13.642;2022-12-18T04:36:22;-7.60;96.60
74488;DHT22;63019;51.080;13.642;2022-12-18T04:37:24;-7.60;96.60
74488;DHT22;63019;51.080;13.642;2022-12-18T04:38:26;-7.60;96.60
74488;DHT22;63019;51.080;13.642;2022-12-18T04:39:27;-7.60;96.60
74488;DHT22;63019;51.080;13.642;2022-12-18T04:40:29;-7.60;96.50
74488;DHT22;63019;51.080;13.642;2022-12-18T04:41:31;-7.60;96.60
74488;DHT22;63019;51.080;13.642;2022-12-18T04:42:32;-7.60;96.60
74488;DHT22;63019;51.080;13.642;2022-12-18T04:43:34;-7.60;96.80
74488;DHT22;63019;51.080;13.642;2022-12-18T04:44:36;-7.60;96.70
74488;DHT22;63019;51.080;13.642;2022-12-18T04:45:38;-7.60;96.70
74488;DHT22;63019;51.080;13.642;2022-12-18T04:46:41;-7.60;96.60
74488;DHT22;63019;51.080;13.642;2022-12-18T04:47:43;-7.60;96.40
74488;DHT22;63019;51.080;13.642;2022-12-18T04:48:46;-7.60;96.20
74488;DHT22;63019;51.080;13.642;2022-12-18T04:49:48;-7.60;96.10
74488;DHT22;63019;51.080;13.642;2022-12-18T04:50:50;-7.60;96.00
74488;DHT22;63019;51.080;13.642;2022-12-18T04:51:51;-7.60;96.10
74488;DHT22;63019;51.080;13.642;2022-12-18T04:52:54;-7.60;96.10
74488;DHT22;63019;51.080;13.642;2022-12-18T04:53:56;-7.60;96.10
74488;DHT22;63019;51.080;13.642;2022-12-18T04:54:58;-7.70;96.10
74488;DHT22;63019;51.080;13.642;2022-12-18T04:56:12;-7.70;96.10
74488;DHT22;63019;51.080;13.642;2022-12-18T04:57:14;-7.70;96.20
74488;DHT22;63019;51.080;13.642;2022-12-18T04:58:16;-7.60;96.30
74488;DHT22;63019;51.080;13.642;2022-12-18T04:59:18;-7.60;96.30
74488;DHT22;63019;51.080;13.642;2022-12-18T05:00:20;-7.60;96.40
74488;DHT22;63019;51.080;13.642;2022-12-18T05:01:22;-7.60;96.60
74488;DHT22;63019;51.080;13.642;2022-12-18T05:02:24;-7.60;96.60
74488;DHT22;63019;51.080;13.642;2022-12-18T05:03:26;-7.60;96.60
74488;DHT22;63019;51.080;13.642;2022-12-18T05:04:28;-7.60;96.70
74488;DHT22;63019;51.080;13.642;2022-12-18T05:05:29;-7.60;96.80
74488;DHT22;63019;51.080;13.642;2022-12-18T05:06:31;-7.60;96.90
74488;DHT22;63019;51.080;13.642;2022-12-18T05:07:33;-7.60;97.10
74488;DHT22;63019;51.080;13.642;2022-12-18T05:08:35;-7.60;97.40
74488;DHT22;63019;51.080;13.642;2022-12-18T05:09:36;-7.60;97.40
74488;DHT22;63019;51.080;13.642;2022-12-18T05:10:38;-7.50;97.50
74488;DHT22;63019;51.080;13.642;2022-12-18T05:11:40;-7.50;97.40
74488;DHT22;63019;51.080;13.642;2022-12-18T05:12:42;-7.50;97.20
74488;DHT22;63019;51.080;13.642;2022-12-18T05:14:02;-7.50;97.00
74488;DHT22;63019;51.080;13.642;2022-12-18T05:15:05;-7.50;96.80
74488;DHT22;63019;51.080;13.642;2022-12-18T05:16:07;-7.60;96.70
74488;DHT22;63019;51.080;13.642;2022-12-18T05:17:09;-7.60;96.30
74488;DHT22;63019;51.080;13.642;2022-12-18T05:18:11;-7.60;96.30
74488;DHT22;63019;51.080;13.642;2022-12-18T05:19:12;-7.60;96.30
74488;DHT22;63019;51.080;13.642;2022-12-18T05:20:14;-7.60;96.40
74488;DHT22;63019;51.080;13.642;2022-12-18T05:21:16;-7.70;96.50
74488;DHT22;63019;51.080;13.642;2022-12-18T05:22:18;-7.70;96.50
74488;DHT22;63019;51.080;13.642;2022-12-18T05:23:21;-7.60;96.40
74488;DHT22;63019;51.080;13.642;2022-12-18T05:24:23;-7.60;96.40
74488;DHT22;63019;51.080;13.642;2022-12-18T05:25:25;-7.60;96.40
74488;DHT22;63019;51.080;13.642;2022-12-18T05:26:27;-7.60;96.40
74488;DHT22;63019;51.080;13.642;2022-12-18T05:27:28;-7.60;96.50
74488;DHT22;63019;51.080;13.642;2022-12-18T05:28:32;-7.70;96.40
74488;DHT22;63019;51.080;13.642;2022-12-18T05:29:34;-7.70;96.40
74488;DHT22;63019;51.080;13.642;2022-12-18T05:30:36;-7.70;96.40
74488;DHT22;63019;51.080;13.642;2022-12-18T05:31:38;-7.70;96.40
74488;DHT22;63019;51.080;13.642;2022-12-18T05:32:40;-7.70;96.20
74488;DHT22;63019;51.080;13.642;2022-12-18T05:33:42;-7.70;96.30
74488;DHT22;63019;51.080;13.642;2022-12-18T05:34:44;-7.70;96.20
74488;DHT22;63019;51.080;13.642;2022-12-18T05:36:03;-7.70;96.20
74488;DHT22;63019;51.080;13.642;2022-12-18T05:37:05;-7.70;96.30
74488;DHT22;63019;51.080;13.642;2022-12-18T05:38:07;-7.70;96.00
74488;DHT22;63019;51.080;13.642;2022-12-18T05:39:09;-7.70;95.80
74488;DHT22;63019;51.080;13.642;2022-12-18T05:40:11;-7.80;95.70
74488;DHT22;63019;51.080;13.642;2022-12-18T05:41:13;-7.80;95.60
74488;DHT22;63019;51.080;13.642;2022-12-18T05:42:15;-7.80;95.70
74488;DHT22;63019;51.080;13.642;2022-12-18T05:43:18;-7.80;95.80
74488;DHT22;63019;51.080;13.642;2022-12-18T05:44:22;-7.90;95.70
74488;DHT22;63019;51.080;13.642;2022-12-18T05:45:24;-7.90;95.60
74488;DHT22;63019;51.080;13.642;2022-12-18T05:46:25;-7.90;95.80
74488;DHT22;63019;51.080;13.642;2022-12-18T05:47:27;-7.90;95.80
74488;DHT22;63019;51.080;13.642;2022-12-18T05:48:30;-7.90;95.80
74488;DHT22;63019;51.080;13.642;2022-12-18T05:49:31;-7.90;95.90
74488;DHT22;63019;51.080;13.642;2022-12-18T05:50:35;-7.90;95.80
74488;DHT22;63019;51.080;13.642;2022-12-18T05:51:37;-7.90;95.80
74488;DHT22;63019;51.080;13.642;2022-12-18T05:52:39;-7.90;95.70
74488;DHT22;63019;51.080;13.642;2022-12-18T05:53:42;-7.90;95.80
74488;DHT22;63019;51.080;13.642;2022-12-18T05:54:44;-8.00;95.70
74488;DHT22;63019;51.080;13.642;2022-12-18T05:55:46;-8.00;95.60
74488;DHT22;63019;51.080;13.642;2022-12-18T05:56:48;-8.00;95.40
74488;DHT22;63019;51.080;13.642;2022-12-18T05:57:50;-8.10;95.30
74488;DHT22;63019;51.080;13.642;2022-12-18T05:58:53;-8.10;95.20
74488;DHT22;63019;51.080;13.642;2022-12-18T05:59:55;-8.10;95.30
74488;DHT22;63019;51.080;13.642;2022-12-18T06:00:57;-8.10;95.40
74488;DHT22;63019;51.080;13.642;2022-12-18T06:01:59;-8.10;95.40
74488;DHT22;63019;51.080;13.642;2022-12-18T06:03:02;-8.10;95.30
74488;DHT22;63019;51.080;13.642;2022-12-18T06:04:04;-8.20;95.30
74488;DHT22;63019;51.080;13.642;2022-12-18T06:05:07;-8.20;95.40
74488;DHT22;63019;51.080;13.642;2022-12-18T06:07:20;-8.20;96.00
74488;DHT22;63019;51.080;13.642;2022-12-18T06:08:21;-8.20;95.60
74488;DHT22;63019;51.080;13.642;2022-12-18T06:09:23;-8.30;95.70
74488;DHT22;63019;51.080;13.642;2022-12-18T06:10:25;-8.30;95.70
74488;DHT22;63019;51.080;13.642;2022-12-18T06:11:27;-8.30;95.70
74488;DHT22;63019;51.080;13.642;2022-12-18T06:12:29;-8.30;95.70
74488;DHT22;63019;51.080;13.642;2022-12-18T06:13:30;-8.40;95.70
74488;DHT22;63019;51.080;13.642;2022-12-18T06:14:32;-8.40;95.80
74488;DHT22;63019;51.080;13.642;2022-12-18T06:15:36;-8.30;95.70
74488;DHT22;63019;51.080;13.642;2022-12-18T06:16:38;-8.30;95.70
74488;DHT22;63019;51.080;13.642;2022-12-18T06:17:40;-8.40;95.20
74488;DHT22;63019;51.080;13.642;2022-12-18T06:18:42;-8.30;95.30
74488;DHT22;63019;51.080;13.642;2022-12-18T06:19:44;-8.40;95.40
74488;DHT22;63019;51.080;13.642;2022-12-18T06:20:53;-8.40;95.60
74488;DHT22;63019;51.080;13.642;2022-12-18T06:21:55;-8.40;95.60
74488;DHT22;63019;51.080;13.642;2022-12-18T06:22:59;-8.40;95.10
74488;DHT22;63019;51.080;13.642;2022-12-18T06:24:01;-8.50;95.00
74488;DHT22;63019;51.080;13.642;2022-12-18T06:25:03;-8.40;95.20
74488;DHT22;63019;51.080;13.642;2022-12-18T06:26:10;-8.40;94.70
74488;DHT22;63019;51.080;13.642;2022-12-18T06:27:12;-8.40;94.80
74488;DHT22;63019;51.080;13.642;2022-12-18T06:28:14;-8.40;95.00
74488;DHT22;63019;51.080;13.642;2022-12-18T06:29:16;-8.40;94.80
74488;DHT22;63019;51.080;13.642;2022-12-18T06:30:18;-8.40;94.90
74488;DHT22;63019;51.080;13.642;2022-12-18T06:31:20;-8.50;95.10
74488;DHT22;63019;51.080;13.642;2022-12-18T06:32:22;-8.50;95.60
74488;DHT22;63019;51.080;13.642;2022-12-18T06:33:26;-8.50;95.60
74488;DHT22;63019;51.080;13.642;2022-12-18T06:34:32;-8.50;96.20
74488;DHT22;63019;51.080;13.642;2022-12-18T06:35:34;-8.40;96.30
74488;DHT22;63019;51.080;13.642;2022-12-18T06:36:36;-8.40;96.20
74488;DHT22;63019;51.080;13.642;2022-12-18T06:37:39;-8.40;96.30
74488;DHT22;63019;51.080;13.642;2022-12-18T06:38:42;-8.40;96.40
74488;DHT22;63019;51.080;13.642;2022-12-18T06:39:44;-8.40;96.50
74488;DHT22;63019;51.080;13.642;2022-12-18T06:40:46;-8.40;96.30
74488;DHT22;63019;51.080;13.642;2022-12-18T06:41:48;-8.30;96.30
74488;DHT22;63019;51.080;13.642;2022-12-18T06:42:49;-8.30;96.50
74488;DHT22;63019;51.080;13.642;2022-12-18T06:43:51;-8.30;96.80
74488;DHT22;63019;51.080;13.642;2022-12-18T06:44:59;-8.30;96.80
74488;DHT22;63019;51.080;13.642;2022-12-18T06:46:03;-8.20;97.00
74488;DHT22;63019;51.080;13.642;2022-12-18T06:47:05;-8.20;96.90
74488;DHT22;63019;51.080;13.642;2022-12-18T06:48:07;-8.20;96.60
74488;DHT22;63019;51.080;13.642;2022-12-18T06:49:08;-8.20;96.30
74488;DHT22;63019;51.080;13.642;2022-12-18T06:50:11;-8.20;96.20
74488;DHT22;63019;51.080;13.642;2022-12-18T06:51:16;-8.20;95.80
74488;DHT22;63019;51.080;13.642;2022-12-18T06:52:18;-8.20;95.70
74488;DHT22;63019;51.080;13.642;2022-12-18T06:53:20;-8.20;95.70
74488;DHT22;63019;51.080;13.642;2022-12-18T06:54:22;-8.20;95.70
74488;DHT22;63019;51.080;13.642;2022-12-18T06:55:24;-8.30;95.60
74488;DHT22;63019;51.080;13.642;2022-12-18T06:56:26;-8.30;95.60
74488;DHT22;63019;51.080;13.642;2022-12-18T06:57:28;-8.30;95.70
74488;DHT22;63019;51.080;13.642;2022-12-18T06:58:30;-8.30;95.70
74488;DHT22;63019;51.080;13.642;2022-12-18T06:59:32;-8.30;95.80
74488;DHT22;63019;51.080;13.642;2022-12-18T07:00:33;-8.30;95.90
74488;DHT22;63019;51.080;13.642;2022-12-18T07:01:35;-8.40;96.10
74488;DHT22;63019;51.080;13.642;2022-12-18T07:02:37;-8.30;95.70
74488;DHT22;63019;51.080;13.642;2022-12-18T07:03:41;-8.40;95.70
74488;DHT22;63019;51.080;13.642;2022-12-18T07:04:44;-8.30;95.70
74488;DHT22;63019;51.080;13.642;2022-12-18T07:05:45;-8.40;95.60
74488;DHT22;63019;51.080;13.642;2022-12-18T07:06:47;-8.40;95.70